createdAt,value
2022-12-08T00:01:23.099Z,9.90
2022-12-08T00:03:50.707Z,8.48
2022-12-08T00:06:46.410Z,8.60
2022-12-08T00:09:21.893Z,8.95
2022-12-08T00:11:50.305Z,10.20
2022-12-08T00:14:16.764Z,10.35
2022-12-08T00:16:43.225Z,9.32
2022-12-08T00:19:09.643Z,11.60
2022-12-08T00:21:35.992Z,10.50
2022-12-08T00:24:02.374Z,10.90
2022-12-08T00:26:28.779Z,9.07
2022-12-08T00:28:55.188Z,10.85
2022-12-08T00:31:21.743Z,10.27
2022-12-08T00:33:48.140Z,10.80
2022-12-08T00:36:15.055Z,11.05
2022-12-08T00:38:41.873Z,11.20
2022-12-08T00:41:13.430Z,10.43
2022-12-08T00:43:39.981Z,10.88
2022-12-08T00:46:06.505Z,9.63
2022-12-08T00:48:33.681Z,10.75
2022-12-08T00:51:00.200Z,10.13
2022-12-08T00:53:26.580Z,9.88
2022-12-08T00:55:53.543Z,10.90
2022-12-08T00:58:19.943Z,10.32
2022-12-08T01:00:46.419Z,10.63
2022-12-08T01:03:13.204Z,10.52
2022-12-08T01:05:39.879Z,11.15
2022-12-08T01:08:07.154Z,10.73
2022-12-08T01:10:37.453Z,10.32
2022-12-08T01:13:04.181Z,10.57
2022-12-08T01:15:30.555Z,9.98
2022-12-08T01:17:57.098Z,11.10
2022-12-08T01:20:23.790Z,10.82
2022-12-08T01:22:50.178Z,11.27
2022-12-08T01:25:16.560Z,10.63
2022-12-08T01:27:42.939Z,10.95
2022-12-08T01:30:09.950Z,12.43
2022-12-08T01:32:36.804Z,11.20
2022-12-08T01:35:03.424Z,12.05
2022-12-08T01:37:29.855Z,13.00
2022-12-08T01:39:56.294Z,12.05
2022-12-08T01:42:23.354Z,11.32
2022-12-08T01:44:54.472Z,11.48
2022-12-08T01:47:22.816Z,12.30
2022-12-08T01:49:49.302Z,12.70
2022-12-08T01:52:35.683Z,13.07
2022-12-08T01:55:08.061Z,12.75
2022-12-08T01:57:40.272Z,12.30
2022-12-08T02:00:09.848Z,8.93
2022-12-08T02:02:46.282Z,12.07
2022-12-08T02:05:13.707Z,11.90
2022-12-08T02:07:40.810Z,10.93
2022-12-08T02:10:08.030Z,13.18
2022-12-08T02:12:34.388Z,12.25
2022-12-08T02:15:04.981Z,12.45
2022-12-08T02:18:06.693Z,11.73
2022-12-08T02:20:56.019Z,12.20
2022-12-08T02:23:41.156Z,13.05
2022-12-08T02:26:51.534Z,13.35
2022-12-08T02:29:46.250Z,12.75
2022-12-08T02:32:31.374Z,11.80
2022-12-08T02:35:08.212Z,11.27
2022-12-08T02:38:16.693Z,10.93
2022-12-08T02:40:57.766Z,12.23
2022-12-08T02:43:43.022Z,10.63
2022-12-08T02:46:13.791Z,11.48
2022-12-08T02:48:41.584Z,12.05
2022-12-08T02:51:08.031Z,12.82
2022-12-08T02:53:36.301Z,12.05
2022-12-08T02:56:22.400Z,12.80
2022-12-08T02:58:56.808Z,12.10
2022-12-08T03:01:46.735Z,14.80
2022-12-08T03:04:13.319Z,12.77
2022-12-08T03:06:48.684Z,14.20
2022-12-08T03:09:36.669Z,13.82
2022-12-08T03:12:30.998Z,12.98
2022-12-08T03:15:04.657Z,12.45
2022-12-08T03:17:31.908Z,13.18
2022-12-08T03:20:03.366Z,13.63
2022-12-08T03:22:30.743Z,12.85
2022-12-08T03:24:58.137Z,14.85
2022-12-08T03:27:28.527Z,13.07
2022-12-08T03:29:57.495Z,13.73
2022-12-08T03:32:34.334Z,12.57
2022-12-08T03:35:05.861Z,12.48
2022-12-08T03:37:35.450Z,12.82
2022-12-08T03:40:04.242Z,11.68
2022-12-08T03:42:30.879Z,11.30
2022-12-08T03:44:57.234Z,12.40
2022-12-08T03:47:23.607Z,12.45
2022-12-08T03:49:49.950Z,11.30
2022-12-08T03:52:16.361Z,12.18
2022-12-08T03:54:42.800Z,12.82
2022-12-08T03:57:09.239Z,13.02
2022-12-08T03:59:35.644Z,12.05
2022-12-08T04:02:02.037Z,12.52
2022-12-08T04:04:28.456Z,13.30
2022-12-08T04:06:54.835Z,12.23
2022-12-08T04:09:21.196Z,12.07
2022-12-08T04:11:47.644Z,12.18
2022-12-08T04:14:14.020Z,13.05
2022-12-08T04:16:40.451Z,11.23
2022-12-08T04:19:07.081Z,11.98
2022-12-08T04:21:33.614Z,11.80
2022-12-08T04:24:01.432Z,11.52
2022-12-08T04:26:28.332Z,13.43
2022-12-08T04:28:54.664Z,12.73
2022-12-08T04:31:21.138Z,12.57
2022-12-08T04:33:48.535Z,12.32
2022-12-08T04:36:15.091Z,13.88
2022-12-08T04:38:41.445Z,12.93
2022-12-08T04:41:07.892Z,13.55
2022-12-08T04:43:35.744Z,12.27
2022-12-08T04:46:02.135Z,13.40
2022-12-08T04:48:28.592Z,12.10
2022-12-08T04:50:54.960Z,11.65
2022-12-08T04:53:21.372Z,14.55
2022-12-08T04:55:49.557Z,11.35
2022-12-08T04:58:18.008Z,13.38
2022-12-08T05:00:45.537Z,11.82
2022-12-08T05:03:12.451Z,11.45
2022-12-08T05:05:39.129Z,11.95
2022-12-08T05:08:06.020Z,12.25
2022-12-08T05:10:32.886Z,11.50
2022-12-08T05:13:00.835Z,12.77
2022-12-08T05:15:27.413Z,12.63
2022-12-08T05:17:53.921Z,10.57
2022-12-08T05:20:20.389Z,11.48
2022-12-08T05:22:46.773Z,12.43
2022-12-08T05:25:13.199Z,10.55
2022-12-08T05:27:39.540Z,10.70
2022-12-08T05:30:06.918Z,10.95
2022-12-08T05:32:33.572Z,9.93
2022-12-08T05:34:59.907Z,10.38
2022-12-08T05:37:26.316Z,9.88
2022-12-08T05:39:52.743Z,9.70
2022-12-08T05:42:24.355Z,9.32
2022-12-08T05:44:51.126Z,9.98
2022-12-08T05:47:17.463Z,11.30
2022-12-08T05:49:43.913Z,10.75
2022-12-08T05:52:10.472Z,9.75
2022-12-08T05:54:36.976Z,9.70
2022-12-08T05:57:03.604Z,10.32
2022-12-08T05:59:29.977Z,8.85
2022-12-08T06:01:56.381Z,9.70
2022-12-08T06:04:22.837Z,8.07
2022-12-08T06:06:49.371Z,10.40
2022-12-08T06:09:15.812Z,10.10
2022-12-08T06:11:42.442Z,9.10
2022-12-08T06:14:12.337Z,8.77
2022-12-08T06:16:39.125Z,8.98
2022-12-08T06:19:05.657Z,9.98
2022-12-08T06:21:32.181Z,8.18
2022-12-08T06:23:58.604Z,8.95
2022-12-08T06:26:25.026Z,9.52
2022-12-08T06:28:51.591Z,9.85
2022-12-08T06:31:21.186Z,8.20
2022-12-08T06:33:47.827Z,8.40
2022-12-08T06:36:15.831Z,8.45
2022-12-08T06:38:43.752Z,8.95
2022-12-08T06:41:11.106Z,8.55
2022-12-08T06:43:38.195Z,8.40
2022-12-08T06:46:07.331Z,9.55
2022-12-08T06:48:33.716Z,8.73
2022-12-08T06:51:11.080Z,8.68
2022-12-08T06:53:38.901Z,8.93
2022-12-08T06:56:06.041Z,9.38
2022-12-08T06:58:32.704Z,8.85
2022-12-08T07:01:04.531Z,10.07
2022-12-08T07:03:30.979Z,9.77
2022-12-08T07:06:03.304Z,8.80
2022-12-08T07:10:56.961Z,9.00
2022-12-08T07:13:23.480Z,9.25
2022-12-08T07:15:50.030Z,9.07
2022-12-08T07:18:16.391Z,10.40
2022-12-08T07:20:42.710Z,8.80
2022-12-08T07:23:09.193Z,8.65
2022-12-08T07:25:35.573Z,9.05
2022-12-08T07:28:07.804Z,8.70
2022-12-08T07:30:34.212Z,10.18
2022-12-08T07:33:02.596Z,10.95
2022-12-08T07:35:29.248Z,10.65
2022-12-08T07:37:55.598Z,8.88
2022-12-08T07:40:21.963Z,11.57
2022-12-08T07:42:49.271Z,11.13
2022-12-08T07:45:15.819Z,10.00
2022-12-08T07:47:42.139Z,9.63
2022-12-08T07:50:08.666Z,10.63
2022-12-08T07:52:35.609Z,10.85
2022-12-08T07:55:02.152Z,11.43
2022-12-08T07:57:28.503Z,11.07
2022-12-08T07:59:54.880Z,10.57
2022-12-08T08:02:24.891Z,10.55
2022-12-08T08:04:52.840Z,9.00
2022-12-08T08:07:19.565Z,9.32
2022-12-08T08:09:46.062Z,9.35
2022-12-08T08:15:01.531Z,9.95
2022-12-08T08:17:29.724Z,9.40
2022-12-08T08:19:56.870Z,10.13
2022-12-08T08:22:25.154Z,9.30
2022-12-08T08:24:52.182Z,9.18
2022-12-08T08:27:19.448Z,9.23
2022-12-08T08:29:45.886Z,9.88
2022-12-08T08:32:12.342Z,9.05
2022-12-08T08:34:38.908Z,9.80
2022-12-08T08:37:05.300Z,8.98
2022-12-08T08:39:31.865Z,8.70
2022-12-08T08:41:58.619Z,10.10
2022-12-08T08:44:25.681Z,8.75
2022-12-08T08:46:52.191Z,9.57
2022-12-08T08:49:18.654Z,10.65
2022-12-08T08:51:44.985Z,12.07
2022-12-08T08:54:11.725Z,11.38
2022-12-08T08:56:38.051Z,11.93
2022-12-08T08:59:04.507Z,12.15
2022-12-08T09:01:30.964Z,12.43
2022-12-08T09:03:57.676Z,11.15
2022-12-08T09:06:25.491Z,11.27
2022-12-08T09:08:52.090Z,12.68
2022-12-08T09:11:18.590Z,10.77
2022-12-08T09:13:48.310Z,11.60
2022-12-08T09:16:15.372Z,11.60
2022-12-08T09:18:42.620Z,12.63
2022-12-08T09:21:16.389Z,12.38
2022-12-08T09:23:43.631Z,10.93
2022-12-08T09:26:10.004Z,11.40
2022-12-08T09:28:36.665Z,12.07
2022-12-08T09:31:03.424Z,11.18
2022-12-08T09:33:30.117Z,10.93
2022-12-08T09:35:56.649Z,10.32
2022-12-08T09:38:24.796Z,11.13
2022-12-08T09:40:55.107Z,11.57
2022-12-08T09:43:45.285Z,11.02
2022-12-08T09:46:15.083Z,11.00
2022-12-08T09:48:48.775Z,11.15
2022-12-08T09:51:15.993Z,11.52
2022-12-08T09:53:48.209Z,11.30
2022-12-08T09:56:29.904Z,10.50
2022-12-08T09:58:58.124Z,10.02
2022-12-08T10:01:28.949Z,11.07
2022-12-08T10:03:56.027Z,9.98
2022-12-08T10:06:43.409Z,10.50
2022-12-08T10:09:28.703Z,10.05
2022-12-08T10:12:22.766Z,8.90
2022-12-08T10:14:54.987Z,8.95
2022-12-08T10:20:15.685Z,7.40
2022-12-08T10:22:44.931Z,7.78
2022-12-08T10:25:33.111Z,6.05
2022-12-08T10:27:59.744Z,7.03
2022-12-08T10:30:26.238Z,7.20
2022-12-08T10:32:53.851Z,6.32
2022-12-08T10:35:22.616Z,7.13
2022-12-08T10:37:57.708Z,8.05
2022-12-08T10:40:27.875Z,6.70
2022-12-08T10:42:58.949Z,7.60
2022-12-08T10:45:29.924Z,8.85
2022-12-08T10:48:03.772Z,8.18
2022-12-08T10:50:41.362Z,8.43
2022-12-08T10:53:07.824Z,7.57
2022-12-08T10:55:46.473Z,8.35
2022-12-08T10:58:45.394Z,8.38
2022-12-08T11:01:16.873Z,9.27
2022-12-08T11:03:52.158Z,8.65
2022-12-08T11:06:23.995Z,9.13
2022-12-08T11:08:54.059Z,9.52
2022-12-08T11:11:29.092Z,8.70
2022-12-08T11:13:56.571Z,7.93
2022-12-08T11:16:23.468Z,9.07
2022-12-08T11:18:57.480Z,8.02
2022-12-08T11:21:35.615Z,7.88
2022-12-08T11:24:20.900Z,8.80
2022-12-08T11:27:08.484Z,7.25
2022-12-08T11:29:35.863Z,8.57
2022-12-08T11:32:13.344Z,7.47
2022-12-08T11:34:48.532Z,8.55
2022-12-08T11:37:34.903Z,8.65
2022-12-08T11:40:08.325Z,7.78
2022-12-08T11:42:42.558Z,8.32
2022-12-08T11:45:18.580Z,6.32
2022-12-08T11:48:19.031Z,4.60
2022-12-08T11:50:51.520Z,4.32
2022-12-08T11:53:28.980Z,3.67
2022-12-08T11:55:59.006Z,3.40
2022-12-08T11:58:37.993Z,4.28
2022-12-08T12:01:05.659Z,4.03
2022-12-08T12:03:40.774Z,4.10
2022-12-08T12:09:35.268Z,3.42
2022-12-08T12:12:13.632Z,3.60
2022-12-08T12:15:04.927Z,4.00
2022-12-08T12:17:37.584Z,4.13
2022-12-08T12:20:17.877Z,3.53
2022-12-08T12:22:49.412Z,6.72
2022-12-08T12:25:18.987Z,4.72
2022-12-08T12:27:46.438Z,4.13
2022-12-08T12:30:25.142Z,4.50
2022-12-08T12:32:56.648Z,3.67
2022-12-08T12:35:34.497Z,4.05
2022-12-08T12:38:37.507Z,3.67
2022-12-08T12:41:07.448Z,3.88
2022-12-08T12:43:36.600Z,3.63
2022-12-08T12:46:27.601Z,3.90
2022-12-08T12:49:14.738Z,3.25
2022-12-08T12:51:41.066Z,4.00
2022-12-08T12:54:22.617Z,3.30
2022-12-08T12:56:53.048Z,4.38
2022-12-08T12:59:22.732Z,4.22
2022-12-08T13:01:54.517Z,4.10
2022-12-08T13:04:30.288Z,4.57
2022-12-08T13:06:57.095Z,3.78
2022-12-08T13:09:33.248Z,3.40
2022-12-08T13:12:09.569Z,2.67
2022-12-08T13:14:48.964Z,2.90
2022-12-08T13:17:25.381Z,3.75
2022-12-08T13:19:56.206Z,3.65
2022-12-08T13:22:54.121Z,3.38
2022-12-08T13:25:44.893Z,3.50
2022-12-08T13:28:30.411Z,3.67
2022-12-08T13:31:01.525Z,3.55
2022-12-08T13:33:31.686Z,2.90
2022-12-08T13:36:16.945Z,3.55
2022-12-08T13:38:46.513Z,2.95
2022-12-08T13:41:20.297Z,2.80
2022-12-08T13:44:50.316Z,3.47
2022-12-08T13:47:09.787Z,3.83
2022-12-08T13:56:59.502Z,3.05
2022-12-08T13:58:36.473Z,3.50
2022-12-08T14:01:14.762Z,3.00
2022-12-08T14:04:30.551Z,2.78
2022-12-08T14:06:42.579Z,2.90
2022-12-08T14:09:15.942Z,2.70
2022-12-08T14:11:51.671Z,3.00
2022-12-08T14:14:46.039Z,3.25
2022-12-08T14:17:14.440Z,2.58
2022-12-08T14:19:44.837Z,3.17
2022-12-08T14:22:14.904Z,2.80
2022-12-08T14:24:48.413Z,2.50
2022-12-08T14:27:18.274Z,2.90
2022-12-08T14:29:50.281Z,2.55
2022-12-08T14:32:29.939Z,2.88
2022-12-08T14:34:59.191Z,2.97
2022-12-08T14:37:28.679Z,3.42
2022-12-08T14:40:01.516Z,3.83
2022-12-08T14:45:05.618Z,3.55
2022-12-08T14:47:34.087Z,3.40
2022-12-08T14:50:03.227Z,3.60
2022-12-08T14:52:30.423Z,4.07
2022-12-08T14:54:58.025Z,3.78
2022-12-08T14:57:31.541Z,4.13
2022-12-08T14:59:58.030Z,4.43
2022-12-08T15:02:31.003Z,4.63
2022-12-08T15:07:29.471Z,4.30
2022-12-08T15:10:14.692Z,4.03
2022-12-08T15:13:25.128Z,3.53
2022-12-08T15:15:57.931Z,3.70
2022-12-08T15:18:36.291Z,4.25
2022-12-08T15:21:05.895Z,4.38
2022-12-08T15:23:42.386Z,3.92
2022-12-08T15:26:09.236Z,4.07
2022-12-08T15:28:35.624Z,4.32
2022-12-08T15:31:02.005Z,4.10
2022-12-08T15:33:28.379Z,3.70
2022-12-08T15:35:54.881Z,4.63
2022-12-08T15:38:29.133Z,4.40
2022-12-08T15:40:58.576Z,4.97
2022-12-08T15:43:25.168Z,4.43
2022-12-08T15:45:59.076Z,4.78
2022-12-08T15:48:28.737Z,4.82
2022-12-08T15:50:56.362Z,4.82
2022-12-08T15:53:22.990Z,4.65
2022-12-08T15:56:18.992Z,4.38
2022-12-08T15:58:55.378Z,5.25
2022-12-08T16:01:22.933Z,6.10
2022-12-08T16:09:32.294Z,6.65
2022-12-08T16:12:17.718Z,6.90
2022-12-08T16:15:47.027Z,6.75
2022-12-08T16:17:32.013Z,8.23
2022-12-08T16:19:58.912Z,7.00
2022-12-08T16:25:20.719Z,9.10
2022-12-08T16:28:01.309Z,8.98
2022-12-08T16:30:32.455Z,7.88
2022-12-08T16:32:58.797Z,8.32
2022-12-08T16:35:25.186Z,8.77
2022-12-08T16:37:51.619Z,8.77
2022-12-08T16:40:18.170Z,8.02
2022-12-08T16:42:45.690Z,9.18
2022-12-08T16:45:22.855Z,9.10
2022-12-08T16:47:55.284Z,8.20
2022-12-08T16:50:26.496Z,5.25
2022-12-08T16:52:59.058Z,7.88
2022-12-08T16:55:25.968Z,7.22
2022-12-08T16:57:53.311Z,8.80
2022-12-08T17:00:21.987Z,8.88
2022-12-08T17:02:48.646Z,9.20
2022-12-08T17:05:17.737Z,8.57
2022-12-08T17:07:48.413Z,8.25
2022-12-08T17:10:18.433Z,9.00
2022-12-08T17:12:45.579Z,9.77
2022-12-08T17:15:15.127Z,9.43
2022-12-08T17:17:41.740Z,9.00
2022-12-08T17:20:14.805Z,9.63
2022-12-08T17:25:08.361Z,9.40
2022-12-08T17:27:35.703Z,9.13
2022-12-08T17:30:02.249Z,9.50
2022-12-08T17:32:28.853Z,8.75
2022-12-08T17:34:55.203Z,9.50
2022-12-08T17:37:21.638Z,10.48
2022-12-08T17:39:48.123Z,10.23
2022-12-08T17:42:14.498Z,10.05
2022-12-08T17:44:40.984Z,11.60
2022-12-08T17:47:07.446Z,10.02
2022-12-08T17:49:33.911Z,11.80
2022-12-08T17:52:03.565Z,10.70
2022-12-08T17:54:30.761Z,12.63
2022-12-08T17:56:58.496Z,11.25
2022-12-08T17:59:26.673Z,9.82
2022-12-08T18:01:54.602Z,9.98
2022-12-08T18:04:21.262Z,10.90
2022-12-08T18:06:47.717Z,10.50
2022-12-08T18:09:15.227Z,9.88
2022-12-08T18:11:43.093Z,10.82
2022-12-08T18:14:10.785Z,9.18
2022-12-08T18:16:40.148Z,10.10
2022-12-08T18:19:07.558Z,9.95
2022-12-08T18:21:34.523Z,9.55
2022-12-08T18:24:00.969Z,9.98
2022-12-08T18:26:28.299Z,10.10
2022-12-08T18:28:54.652Z,8.98
2022-12-08T18:31:22.459Z,8.48
2022-12-08T18:33:50.302Z,8.55
2022-12-08T18:36:20.340Z,7.82
2022-12-08T18:38:47.200Z,7.50
2022-12-08T18:41:20.191Z,8.38
2022-12-08T18:46:14.053Z,7.05
2022-12-08T18:48:47.056Z,7.03
2022-12-08T18:51:16.026Z,7.68
2022-12-08T18:53:42.900Z,8.00
2022-12-08T18:56:21.161Z,7.53
2022-12-08T18:58:47.597Z,7.45
2022-12-08T19:01:14.529Z,7.97
2022-12-08T19:03:45.647Z,8.18
2022-12-08T19:06:25.047Z,5.50
2022-12-08T19:08:51.459Z,4.80
2022-12-08T19:11:26.344Z,4.85
2022-12-08T19:13:53.904Z,5.38
2022-12-08T19:16:20.885Z,5.18
2022-12-08T19:18:47.405Z,5.63
2022-12-08T19:21:13.886Z,5.60
2022-12-08T19:23:40.963Z,6.85
2022-12-08T19:26:08.335Z,6.45
2022-12-08T19:28:35.259Z,7.03
2022-12-08T19:31:07.084Z,6.75
2022-12-08T19:33:34.383Z,6.30
2022-12-08T19:36:09.477Z,5.70
2022-12-08T19:38:56.042Z,6.82
2022-12-08T19:41:42.393Z,7.68
2022-12-08T19:44:26.332Z,7.63
2022-12-08T19:46:53.050Z,6.80
2022-12-08T19:49:19.501Z,8.13
2022-12-08T19:51:45.940Z,7.60
2022-12-08T19:54:12.501Z,6.82
2022-12-08T19:56:38.906Z,7.72
2022-12-08T19:59:05.313Z,7.00
2022-12-08T20:01:31.755Z,6.85
2022-12-08T20:03:58.116Z,7.55
2022-12-08T20:06:26.601Z,7.35
2022-12-08T20:08:53.945Z,7.53
2022-12-08T20:11:20.877Z,6.97
2022-12-08T20:13:47.778Z,7.18
2022-12-08T20:16:15.823Z,7.82
2022-12-08T20:18:44.014Z,7.05
2022-12-08T20:21:12.102Z,6.88
2022-12-08T20:23:38.567Z,7.53
2022-12-08T20:26:11.653Z,6.55
2022-12-08T20:31:05.331Z,6.63
2022-12-08T20:33:31.958Z,7.20
2022-12-08T20:36:04.016Z,6.68
2022-12-08T20:38:31.081Z,8.70
2022-12-08T20:40:58.571Z,7.65
2022-12-08T20:43:25.495Z,7.65
2022-12-08T20:45:51.911Z,8.07
2022-12-08T20:48:18.554Z,8.10
2022-12-08T20:50:45.023Z,7.40
2022-12-08T20:53:11.581Z,7.55
2022-12-08T20:55:41.556Z,7.47
2022-12-08T20:58:08.391Z,8.27
2022-12-08T21:00:34.766Z,7.60
2022-12-08T21:03:01.605Z,8.10
2022-12-08T21:05:28.301Z,8.13
2022-12-08T21:07:54.986Z,7.63
2022-12-08T21:10:21.521Z,7.85
2022-12-08T21:12:47.986Z,8.35
2022-12-08T21:15:14.355Z,9.13
2022-12-08T21:17:40.952Z,9.20
2022-12-08T21:20:08.182Z,8.95
2022-12-08T21:22:34.738Z,9.70
2022-12-08T21:25:01.132Z,8.70
2022-12-08T21:27:27.829Z,8.82
2022-12-08T21:29:54.204Z,9.43
2022-12-08T21:32:23.404Z,8.38
2022-12-08T21:34:53.634Z,9.43
2022-12-08T21:37:21.603Z,11.82
2022-12-08T21:39:48.061Z,11.10
2022-12-08T21:42:34.472Z,10.02
2022-12-08T21:45:01.364Z,7.93
2022-12-08T21:47:27.983Z,8.00
2022-12-08T21:49:54.540Z,7.93
2022-12-08T21:52:20.887Z,10.68
2022-12-08T21:54:47.391Z,8.77
2022-12-08T21:57:13.809Z,9.23
2022-12-08T21:59:40.322Z,7.93
2022-12-08T22:02:10.000Z,10.75
2022-12-08T22:04:36.694Z,10.20
2022-12-08T22:07:03.241Z,11.63
2022-12-08T22:09:29.745Z,11.07
2022-12-08T22:11:56.413Z,11.35
2022-12-08T22:14:22.853Z,10.95
2022-12-08T22:16:49.776Z,11.68
2022-12-08T22:19:16.676Z,10.75
2022-12-08T22:21:43.231Z,10.32
2022-12-08T22:24:09.841Z,10.07
2022-12-08T22:26:36.393Z,10.02
2022-12-08T22:29:02.910Z,10.40
2022-12-08T22:31:29.362Z,9.90
2022-12-08T22:33:55.956Z,8.75
2022-12-08T22:36:25.397Z,9.68
2022-12-08T22:38:53.086Z,9.07
2022-12-08T22:41:20.262Z,8.68
2022-12-08T22:43:47.390Z,8.95
2022-12-08T22:46:20.190Z,9.38
2022-12-08T22:48:46.652Z,10.30
2022-12-08T22:51:13.601Z,10.13
2022-12-08T22:53:40.228Z,9.55
2022-12-08T22:56:09.576Z,8.75
2022-12-08T22:58:37.061Z,8.68
2022-12-08T23:01:03.537Z,9.30
2022-12-08T23:03:30.742Z,8.85
2022-12-08T23:05:57.384Z,8.95
2022-12-08T23:08:24.352Z,9.25
2022-12-08T23:10:52.794Z,9.15
2022-12-08T23:13:21.090Z,8.38
2022-12-08T23:15:47.870Z,9.70
2022-12-08T23:18:18.728Z,9.75
2022-12-08T23:20:46.113Z,9.32
2022-12-08T23:23:13.268Z,9.52
2022-12-08T23:25:43.269Z,9.23
2022-12-08T23:28:10.418Z,9.60
2022-12-08T23:30:39.597Z,10.73
2022-12-08T23:33:06.221Z,10.07
2022-12-08T23:35:32.782Z,9.52
2022-12-08T23:37:59.203Z,9.50
2022-12-08T23:40:25.658Z,10.50
2022-12-08T23:42:52.237Z,12.13
2022-12-08T23:45:18.569Z,12.55
2022-12-08T23:47:45.074Z,10.68
2022-12-08T23:50:12.411Z,11.07
2022-12-08T23:52:39.938Z,10.82
2022-12-08T23:55:07.381Z,9.95
2022-12-08T23:57:35.648Z,9.77
